Time;durP1;ratioP1;P1;durP2;ratioP2;P2;SDS_P1;SDS_P2;PMS_P1;PMS_P2;Temp;Humidity;BMP_temperature;BMP_pressure;BME280_temperature;BME280_humidity;BME280_pressure;Samples;Min_cycle;Max_cycle;Signal;HPM_P1;HPM_P2
2021/11/14 00:00:48;;;;;;;14.00;12.60;;;12.80;99.90;;;;;;5011987;28;20565;-37
2021/11/14 00:03:15;;;;;;;14.43;12.90;;;12.70;99.90;;;;;;5018537;28;20441;-37
2021/11/14 00:05:41;;;;;;;12.90;11.57;;;12.70;99.90;;;;;;5021776;28;20846;-37
2021/11/14 00:08:09;;;;;;;12.30;11.07;;;12.60;99.90;;;;;;5026205;28;20452;-37
2021/11/14 00:10:36;;;;;;;12.83;11.60;;;12.60;99.90;;;;;;5008007;28;20426;-37
2021/11/14 00:13:04;;;;;;;13.63;12.33;;;12.50;99.90;;;;;;5012312;28;20462;-37
2021/11/14 00:15:30;;;;;;;14.13;12.63;;;12.50;99.90;;;;;;5007109;28;20790;-37
2021/11/14 00:17:56;;;;;;;14.40;11.97;;;12.50;99.90;;;;;;5010563;28;20435;-37
2021/11/14 00:20:22;;;;;;;12.37;11.03;;;12.50;99.90;;;;;;5025488;28;20440;-37
2021/11/14 00:22:49;;;;;;;13.60;12.17;;;12.40;99.90;;;;;;5021133;28;20421;-37
2021/11/14 00:25:17;;;;;;;14.93;13.00;;;12.30;99.90;;;;;;5006925;28;20476;-37
2021/11/14 00:27:44;;;;;;;13.50;12.20;;;12.20;99.90;;;;;;5008511;28;20887;-37
2021/11/14 00:30:10;;;;;;;13.10;11.77;;;12.20;99.90;;;;;;5007170;28;20437;-37
2021/11/14 00:32:36;;;;;;;14.03;12.63;;;12.10;99.90;;;;;;5007926;28;20816;-37
2021/11/14 00:35:04;;;;;;;13.50;11.80;;;12.10;99.90;;;;;;5015587;28;20508;-37
2021/11/14 00:37:31;;;;;;;14.80;12.70;;;12.00;99.90;;;;;;5017668;28;20221;-37
2021/11/14 00:39:57;;;;;;;12.50;11.20;;;12.00;99.90;;;;;;5007493;28;20441;-37
2021/11/14 00:42:23;;;;;;;13.07;11.70;;;12.00;99.90;;;;;;5017484;28;20793;-37
2021/11/14 00:44:49;;;;;;;13.77;12.37;;;11.90;99.90;;;;;;5006967;28;20832;-37
2021/11/14 00:47:14;;;;;;;13.10;11.70;;;11.90;99.90;;;;;;5006342;28;20202;-37
2021/11/14 00:49:40;;;;;;;13.00;11.70;;;11.90;99.90;;;;;;5009326;28;20202;-37
2021/11/14 00:52:06;;;;;;;12.70;11.37;;;11.90;99.90;;;;;;5018494;28;20207;-37
2021/11/14 00:54:32;;;;;;;12.73;11.27;;;11.90;99.90;;;;;;5017572;28;20194;-37
2021/11/14 00:56:57;;;;;;;12.80;11.53;;;11.90;99.90;;;;;;5012936;28;20655;-37
2021/11/14 00:59:23;;;;;;;13.20;11.90;;;11.80;99.90;;;;;;5008105;28;20205;-37
2021/11/14 01:01:49;;;;;;;14.60;13.10;;;11.80;99.90;;;;;;5011064;28;20220;-37
2021/11/14 01:04:15;;;;;;;11.30;10.20;;;11.80;99.90;;;;;;5015495;28;20191;-37
2021/11/14 01:06:40;;;;;;;13.10;11.70;;;11.80;99.90;;;;;;5020088;28;20662;-37
2021/11/14 01:09:07;;;;;;;12.97;11.60;;;11.70;99.90;;;;;;5013140;28;20273;-37
2021/11/14 01:11:33;;;;;;;13.50;12.20;;;11.70;99.90;;;;;;5011541;28;20272;-37
2021/11/14 01:13:59;;;;;;;12.83;11.43;;;11.70;99.90;;;;;;5009954;28;20462;-37
2021/11/14 01:16:25;;;;;;;13.27;11.87;;;11.70;99.90;;;;;;5011020;28;20430;-37
2021/11/14 01:18:50;;;;;;;12.50;11.30;;;11.50;99.90;;;;;;5018613;28;20191;-37
2021/11/14 01:21:16;;;;;;;13.60;11.33;;;11.60;99.90;;;;;;5018184;28;20417;-37
2021/11/14 01:23:45;;;;;;;13.83;12.33;;;11.60;99.90;;;;;;5014282;28;20187;-37
2021/11/14 01:26:11;;;;;;;12.77;11.47;;;11.50;99.90;;;;;;5011747;28;20515;-37
2021/11/14 01:28:37;;;;;;;12.87;11.10;;;11.60;99.90;;;;;;5021220;28;20465;-37
2021/11/14 01:31:02;;;;;;;13.93;12.43;;;11.50;99.90;;;;;;5015095;28;20202;-37
2021/11/14 01:33:29;;;;;;;12.40;11.20;;;11.40;99.90;;;;;;5014249;28;20476;-38
2021/11/14 01:35:56;;;;;;;12.57;11.00;;;11.50;99.90;;;;;;5018088;28;20217;-37
2021/11/14 01:38:25;;;;;;;11.87;10.73;;;11.40;99.90;;;;;;5015196;28;20509;-37
2021/11/14 01:40:54;;;;;;;12.07;10.87;;;11.40;99.90;;;;;;5010106;28;20429;-37
2021/11/14 01:43:36;;;;;;;12.43;11.07;;;11.40;99.90;;;;;;5015783;28;20851;-37
2021/11/14 01:46:02;;;;;;;11.13;10.13;;;11.40;99.90;;;;;;5008709;28;21014;-37
2021/11/14 01:48:28;;;;;;;12.23;10.93;;;11.40;99.90;;;;;;5020604;28;20561;-37
2021/11/14 01:50:54;;;;;;;13.70;12.37;;;11.30;99.90;;;;;;5022072;28;20557;-38
2021/11/14 01:53:20;;;;;;;11.70;10.70;;;11.30;99.90;;;;;;5023503;28;20206;-37
2021/11/14 01:55:47;;;;;;;12.40;11.20;;;11.20;99.90;;;;;;5023758;28;20436;-37
2021/11/14 01:58:20;;;;;;;11.53;10.40;;;11.20;99.90;;;;;;5012079;28;20218;-37
2021/11/14 02:00:54;;;;;;;12.27;11.07;;;11.10;99.90;;;;;;5010116;28;20429;-37
2021/11/14 02:03:22;;;;;;;12.33;11.03;;;11.20;99.90;;;;;;5011014;28;20897;-37
2021/11/14 02:05:48;;;;;;;12.20;10.87;;;11.20;99.90;;;;;;5017606;28;20444;-38
2021/11/14 02:08:14;;;;;;;12.10;10.90;;;11.10;99.90;;;;;;5024363;28;20445;-37
2021/11/14 02:10:42;;;;;;;12.43;11.23;;;11.10;99.90;;;;;;5019544;28;20201;-38
2021/11/14 02:13:09;;;;;;;11.87;10.77;;;11.20;99.90;;;;;;5020608;28;20214;-37
2021/11/14 02:15:35;;;;;;;12.37;11.20;;;11.00;99.90;;;;;;5009881;28;20540;-37
2021/11/14 02:18:02;;;;;;;12.30;11.07;;;11.10;99.90;;;;;;5009661;28;20433;-37
2021/11/14 02:20:28;;;;;;;15.87;11.83;;;11.00;99.90;;;;;;5019481;28;20441;-37
2021/11/14 02:22:54;;;;;;;12.00;10.90;;;11.00;99.90;;;;;;5023425;28;20499;-37
2021/11/14 02:25:22;;;;;;;12.30;10.83;;;10.90;99.90;;;;;;5010029;28;20642;-37
2021/11/14 02:27:50;;;;;;;12.03;10.80;;;10.80;99.90;;;;;;5016819;28;20441;-37
2021/11/14 02:30:17;;;;;;;12.97;11.60;;;10.90;99.90;;;;;;5009563;28;20796;-37
2021/11/14 02:32:44;;;;;;;11.07;9.97;;;10.80;99.90;;;;;;5009034;28;20466;-36
2021/11/14 02:35:11;;;;;;;10.83;9.73;;;10.80;99.90;;;;;;5016942;28;20429;-37
2021/11/14 02:37:37;;;;;;;12.57;10.03;;;10.50;99.90;;;;;;5020331;28;20436;-37
2021/11/14 02:40:05;;;;;;;10.90;9.90;;;10.70;99.90;;;;;;5021134;28;20418;-37
2021/11/14 02:42:31;;;;;;;11.13;10.03;;;10.70;99.90;;;;;;5012486;28;20853;-37
2021/11/14 02:44:57;;;;;;;12.23;10.77;;;10.80;99.90;;;;;;5008914;28;20430;-37
2021/11/14 02:47:22;;;;;;;10.23;9.10;;;10.60;99.90;;;;;;5007973;28;20422;-37
2021/11/14 02:49:48;;;;;;;11.87;9.77;;;10.50;99.90;;;;;;5023692;28;20198;-37
2021/11/14 02:52:14;;;;;;;10.13;8.90;;;10.60;99.90;;;;;;5017296;28;20669;-37
2021/11/14 02:54:41;;;;;;;10.40;9.40;;;10.70;99.90;;;;;;5012733;28;20258;-37
2021/11/14 02:57:07;;;;;;;10.40;9.30;;;10.50;99.90;;;;;;5009409;28;20302;-37
2021/11/14 02:59:33;;;;;;;11.20;10.00;;;10.50;99.90;;;;;;5018462;28;20430;-36
2021/11/14 03:02:00;;;;;;;13.33;9.60;;;10.40;99.90;;;;;;5008771;28;20430;-37
2021/11/14 03:04:29;;;;;;;11.17;9.50;;;10.40;99.90;;;;;;5014133;28;20492;-37
2021/11/14 03:06:56;;;;;;;10.20;9.10;;;10.40;99.90;;;;;;5014297;28;20421;-37
2021/11/14 03:09:24;;;;;;;10.97;9.80;;;10.50;99.90;;;;;;5016551;28;21080;-37
2021/11/14 03:11:52;;;;;;;10.77;9.77;;;10.30;99.90;;;;;;5008679;28;20465;-36
2021/11/14 03:14:18;;;;;;;10.33;9.27;;;10.50;99.90;;;;;;5014150;28;20441;-37
2021/11/14 03:16:44;;;;;;;11.63;10.00;;;10.30;99.90;;;;;;5010062;28;20804;-37
2021/11/14 03:19:11;;;;;;;12.67;10.37;;;10.30;99.90;;;;;;5021530;28;20443;-37
2021/11/14 03:21:37;;;;;;;12.83;11.37;;;10.20;99.90;;;;;;5016407;28;20445;-37
2021/11/14 03:24:04;;;;;;;12.97;11.57;;;10.10;99.90;;;;;;5024365;28;20425;-37
2021/11/14 03:26:30;;;;;;;15.47;13.40;;;10.10;99.90;;;;;;5009976;28;20218;-37
2021/11/14 03:28:56;;;;;;;17.00;14.13;;;10.00;99.90;;;;;;5010426;28;20451;-38
2021/11/14 03:31:27;;;;;;;16.50;14.70;;;9.90;99.90;;;;;;5007896;28;20473;-37
2021/11/14 03:33:56;;;;;;;14.63;12.67;;;9.80;99.90;;;;;;5007875;28;20693;-37
2021/11/14 03:36:22;;;;;;;16.67;13.70;;;9.80;99.90;;;;;;5016360;28;20525;-37
2021/11/14 03:38:53;;;;;;;15.27;13.70;;;9.70;99.90;;;;;;5020295;28;20426;-37
2021/11/14 03:41:27;;;;;;;14.80;12.30;;;9.90;99.90;;;;;;5008107;28;20414;-37
2021/11/14 03:43:53;;;;;;;16.77;13.67;;;9.80;99.90;;;;;;5019529;28;20427;-36
2021/11/14 03:46:20;;;;;;;18.03;13.77;;;9.60;99.90;;;;;;5006525;28;20414;-37
2021/11/14 03:48:48;;;;;;;16.03;14.30;;;9.60;99.90;;;;;;5021082;28;20772;-37
2021/11/14 03:51:15;;;;;;;15.50;13.57;;;9.70;99.90;;;;;;5022262;28;21142;-36
2021/11/14 03:53:41;;;;;;;13.97;12.47;;;9.70;99.90;;;;;;5020701;28;20896;-37
2021/11/14 03:56:07;;;;;;;13.97;12.30;;;9.60;99.90;;;;;;5007738;28;20418;-37
2021/11/14 03:58:34;;;;;;;12.20;10.90;;;9.80;99.90;;;;;;5015047;28;20441;-37
2021/11/14 04:01:02;;;;;;;11.30;10.23;;;9.50;99.90;;;;;;5007753;28;20559;-37
2021/11/14 04:03:29;;;;;;;11.20;10.10;;;9.70;99.90;;;;;;5005979;28;21011;-37
2021/11/14 04:05:56;;;;;;;14.00;10.57;;;9.50;99.90;;;;;;5020935;28;21042;-37
2021/11/14 04:08:25;;;;;;;10.57;9.47;;;9.40;99.90;;;;;;5022937;28;20421;-37
2021/11/14 04:10:53;;;;;;;9.50;8.60;;;9.60;99.90;;;;;;5018102;28;20430;-37
2021/11/14 04:13:18;;;;;;;13.37;9.27;;;9.40;99.90;;;;;;5011797;28;20465;-37
2021/11/14 04:15:45;;;;;;;10.40;9.07;;;9.50;99.90;;;;;;5020071;28;20781;-37
2021/11/14 04:18:11;;;;;;;10.83;9.73;;;9.40;99.90;;;;;;5011362;28;20422;-37
2021/11/14 04:20:40;;;;;;;9.70;8.70;;;9.40;99.90;;;;;;5011701;28;20524;-37
2021/11/14 04:23:07;;;;;;;12.40;8.37;;;9.50;99.90;;;;;;5021925;28;20557;-37
2021/11/14 04:25:34;;;;;;;9.20;8.27;;;9.40;99.90;;;;;;5015027;28;20469;-37
2021/11/14 04:27:59;;;;;;;10.50;8.33;;;9.20;99.90;;;;;;5009968;28;20508;-37
2021/11/14 04:30:26;;;;;;;9.33;8.43;;;9.40;99.90;;;;;;5017514;28;20504;-37
2021/11/14 04:32:53;;;;;;;10.90;9.00;;;9.40;99.90;;;;;;5006622;28;20244;-37
2021/11/14 04:35:19;;;;;;;10.23;9.10;;;9.40;99.90;;;;;;5011025;28;20430;-37
2021/11/14 04:37:48;;;;;;;10.00;8.93;;;9.40;99.90;;;;;;5018788;28;20418;-37
2021/11/14 04:40:16;;;;;;;9.20;8.30;;;9.30;99.90;;;;;;5017254;28;20191;-37
2021/11/14 04:42:42;;;;;;;12.00;9.70;;;9.30;99.90;;;;;;5014564;28;20418;-37
2021/11/14 04:45:09;;;;;;;10.40;9.33;;;9.20;99.90;;;;;;5015479;28;20542;-37
2021/11/14 04:47:35;;;;;;;10.37;8.67;;;9.10;99.90;;;;;;5009423;28;20729;-37
2021/11/14 04:50:01;;;;;;;12.83;9.90;;;9.10;99.90;;;;;;5017235;28;20441;-37
2021/11/14 04:52:27;;;;;;;12.40;9.63;;;9.20;99.90;;;;;;5023270;28;20464;-37
2021/11/14 04:54:52;;;;;;;11.97;10.07;;;9.00;99.90;;;;;;5024672;28;20797;-37
2021/11/14 04:57:19;;;;;;;12.13;10.77;;;9.10;99.90;;;;;;5008504;28;20252;-37
2021/11/14 04:59:44;;;;;;;13.90;11.07;;;9.00;99.90;;;;;;5010694;28;20274;-36
2021/11/14 05:02:10;;;;;;;11.17;9.60;;;8.80;99.90;;;;;;5007076;28;20584;-37
2021/11/14 05:04:36;;;;;;;13.63;10.90;;;9.00;99.90;;;;;;5016593;28;20285;-37
2021/11/14 05:07:02;;;;;;;13.43;10.83;;;8.90;99.90;;;;;;5018913;28;20307;-36
2021/11/14 05:09:28;;;;;;;17.80;13.03;;;8.80;99.90;;;;;;5017683;28;21147;-37
2021/11/14 05:11:53;;;;;;;22.37;13.90;;;8.90;99.90;;;;;;5009066;28;20464;-37
2021/11/14 05:14:19;;;;;;;20.23;13.60;;;9.00;99.90;;;;;;5006664;28;20183;-36
2021/11/14 05:16:44;;;;;;;21.73;14.50;;;9.00;99.90;;;;;;5006939;28;20344;-36
2021/11/14 05:19:10;;;;;;;25.47;17.83;;;9.00;99.90;;;;;;5007056;28;20191;-37
2021/11/14 05:21:38;;;;;;;26.47;17.03;;;9.20;99.90;;;;;;5005434;28;20198;-37
2021/11/14 05:24:06;;;;;;;29.37;19.63;;;9.00;99.90;;;;;;5009280;28;20182;-37
2021/11/14 05:26:32;;;;;;;29.63;19.50;;;9.00;99.90;;;;;;5006498;28;20788;-37
2021/11/14 05:28:58;;;;;;;28.43;19.87;;;8.90;99.90;;;;;;5014689;28;20436;-37
2021/11/14 05:31:24;;;;;;;30.63;21.43;;;9.00;99.90;;;;;;5008124;28;20422;-37
2021/11/14 05:33:49;;;;;;;31.33;22.27;;;8.90;99.90;;;;;;5006050;28;20257;-37
2021/11/14 05:36:15;;;;;;;36.30;22.77;;;8.90;99.90;;;;;;5014535;28;20179;-37
2021/11/14 05:38:41;;;;;;;36.43;24.53;;;8.90;99.90;;;;;;5017470;28;20187;-37
2021/11/14 05:41:07;;;;;;;38.33;24.13;;;8.90;99.90;;;;;;5007684;28;20218;-37
2021/11/14 05:43:32;;;;;;;38.40;26.57;;;8.90;99.90;;;;;;5008349;28;20194;-36
2021/11/14 05:45:58;;;;;;;41.10;28.20;;;8.90;99.90;;;;;;5008121;28;20681;-37
2021/11/14 05:48:23;;;;;;;41.13;27.50;;;8.80;99.90;;;;;;5020877;28;20245;-37
2021/11/14 05:50:49;;;;;;;48.57;29.80;;;8.70;99.90;;;;;;5016353;28;20209;-37
2021/11/14 05:53:15;;;;;;;47.20;28.57;;;8.80;99.90;;;;;;5023077;28;20222;-37
2021/11/14 05:55:41;;;;;;;45.53;28.87;;;8.80;99.90;;;;;;5015063;28;20723;-37
2021/11/14 05:58:12;;;;;;;43.70;28.07;;;8.70;99.90;;;;;;5009648;28;20202;-37
2021/11/14 06:03:43;;;;;;;47.80;30.00;;;8.70;99.90;;;;;;5021153;28;20912;-37
2021/11/14 06:05:57;;;;;;;43.10;27.90;;;8.70;99.90;;;;;;5011803;28;20972;-37
2021/11/14 06:08:22;;;;;;;40.50;26.73;;;8.70;99.90;;;;;;5017302;28;20429;-37
2021/11/14 06:10:54;;;;;;;37.63;24.90;;;8.70;99.90;;;;;;5014146;28;20202;-37
2021/11/14 06:13:22;;;;;;;38.70;26.00;;;8.60;99.90;;;;;;5008918;28;20230;-37
2021/11/14 06:15:48;;;;;;;35.60;25.20;;;8.60;99.90;;;;;;5019523;28;20513;-36
2021/11/14 06:18:14;;;;;;;35.13;23.07;;;8.60;99.90;;;;;;5009997;28;20445;-37
2021/11/14 06:20:39;;;;;;;30.90;22.07;;;8.70;99.90;;;;;;5015564;28;20440;-37
2021/11/14 06:23:06;;;;;;;30.07;22.80;;;8.50;99.90;;;;;;5016682;28;20245;-37
2021/11/14 06:25:33;;;;;;;29.17;20.60;;;8.70;99.90;;;;;;5014951;28;20193;-37
2021/11/14 06:27:58;;;;;;;25.27;18.90;;;8.90;99.90;;;;;;5009319;28;20868;-36
2021/11/14 06:30:25;;;;;;;27.77;20.33;;;8.60;99.90;;;;;;5015742;28;20457;-37
2021/11/14 06:32:51;;;;;;;23.97;17.57;;;8.70;99.90;;;;;;5023055;28;20374;-37
2021/11/14 06:35:16;;;;;;;23.07;18.53;;;8.70;99.90;;;;;;5021336;28;20414;-36
2021/11/14 06:37:42;;;;;;;24.80;19.00;;;8.80;99.90;;;;;;5022807;28;20773;-36
2021/11/14 06:40:09;;;;;;;24.70;19.40;;;8.70;99.90;;;;;;5022951;28;20285;-36
2021/11/14 06:42:35;;;;;;;22.50;18.67;;;8.80;99.90;;;;;;5015208;28;20477;-36
2021/11/14 06:45:01;;;;;;;25.20;19.73;;;8.70;99.90;;;;;;5028237;28;20421;-37
2021/11/14 06:47:27;;;;;;;20.20;17.67;;;8.70;99.90;;;;;;5026703;28;20444;-36
2021/11/14 06:49:53;;;;;;;24.90;19.53;;;8.90;99.90;;;;;;5018984;28;20452;-37
2021/11/14 06:52:20;;;;;;;23.50;18.37;;;8.80;99.90;;;;;;5029630;28;20213;-36
2021/11/14 06:54:46;;;;;;;21.80;18.20;;;8.70;99.90;;;;;;5023815;28;20179;-37
2021/11/14 06:57:12;;;;;;;21.83;17.73;;;8.70;99.90;;;;;;5007659;28;20438;-36
2021/11/14 06:59:38;;;;;;;20.30;17.13;;;8.70;99.90;;;;;;5015286;28;20403;-36
2021/11/14 07:02:08;;;;;;;21.80;17.20;;;8.80;99.90;;;;;;5012087;28;20273;-36
2021/11/14 07:04:34;;;;;;;23.13;18.63;;;8.50;99.90;;;;;;5023912;28;20447;-37
2021/11/14 07:07:01;;;;;;;23.83;17.83;;;8.50;99.90;;;;;;5018335;28;20940;-36
2021/11/14 07:09:26;;;;;;;21.40;16.80;;;8.60;99.90;;;;;;5022099;28;20421;-36
2021/11/14 07:11:54;;;;;;;22.70;17.87;;;8.60;99.90;;;;;;5007149;28;20422;-37
2021/11/14 07:14:22;;;;;;;18.77;16.07;;;8.70;99.90;;;;;;5012147;28;20182;-37
2021/11/14 07:16:47;;;;;;;23.80;17.40;;;8.80;99.90;;;;;;5009632;28;20434;-36
2021/11/14 07:19:13;;;;;;;18.97;16.20;;;8.70;99.90;;;;;;5007972;28;20426;-36
2021/11/14 07:21:39;;;;;;;20.23;16.10;;;8.50;99.90;;;;;;5014005;28;20608;-37
2021/11/14 07:24:05;;;;;;;19.27;15.70;;;8.30;99.90;;;;;;5018475;28;20705;-36
2021/11/14 07:26:30;;;;;;;18.00;14.77;;;8.20;99.90;;;;;;5021738;28;20541;-36
2021/11/14 07:28:56;;;;;;;17.27;15.00;;;8.40;99.90;;;;;;5009009;28;20798;-37
2021/11/14 07:31:22;;;;;;;21.53;14.80;;;8.40;99.90;;;;;;5009764;28;20183;-37
2021/11/14 07:33:47;;;;;;;18.67;14.50;;;8.60;99.90;;;;;;4996998;28;20468;-37
2021/11/14 07:36:13;;;;;;;18.10;13.70;;;8.60;99.90;;;;;;5025923;28;20209;-36
2021/11/14 07:38:39;;;;;;;15.20;13.03;;;8.70;99.90;;;;;;5024824;28;20190;-36
2021/11/14 07:41:05;;;;;;;14.03;12.40;;;8.60;99.90;;;;;;5032987;28;20186;-37
2021/11/14 07:43:30;;;;;;;14.03;12.30;;;8.70;99.90;;;;;;5026827;28;20194;-37
2021/11/14 07:45:56;;;;;;;15.07;12.47;;;8.60;99.90;;;;;;5025811;28;20221;-37
2021/11/14 07:48:22;;;;;;;14.77;12.93;;;8.70;99.90;;;;;;5027143;28;20223;-36
2021/11/14 07:50:47;;;;;;;18.53;13.67;;;8.60;99.90;;;;;;5009968;28;20197;-36
2021/11/14 07:53:13;;;;;;;15.40;12.70;;;8.70;99.90;;;;;;5013380;28;20748;-37
2021/11/14 07:55:39;;;;;;;17.13;12.20;;;8.70;99.90;;;;;;5030996;28;20193;-37
2021/11/14 07:58:06;;;;;;;15.17;13.00;;;8.60;99.90;;;;;;5025211;28;20202;-37
2021/11/14 08:00:33;;;;;;;16.13;12.30;;;8.60;99.90;;;;;;5031819;28;20423;-37
2021/11/14 08:02:59;;;;;;;18.43;13.07;;;8.70;99.90;;;;;;5035380;28;20469;-37
2021/11/14 08:05:28;;;;;;;16.97;13.03;;;8.60;99.90;;;;;;5029785;28;20580;-37
2021/11/14 08:07:54;;;;;;;15.77;13.00;;;8.50;99.90;;;;;;5028527;28;20459;-37
2021/11/14 08:10:20;;;;;;;15.90;12.10;;;8.60;99.90;;;;;;5025507;28;20421;-37
2021/11/14 08:12:46;;;;;;;20.30;13.60;;;8.80;99.90;;;;;;5021427;28;20486;-36
2021/11/14 08:15:13;;;;;;;17.60;13.60;;;8.60;99.90;;;;;;5014595;28;20433;-37
2021/11/14 08:17:39;;;;;;;16.20;13.47;;;8.80;99.90;;;;;;5004393;28;20409;-36
2021/11/14 08:20:06;;;;;;;14.70;12.50;;;8.60;99.90;;;;;;5005862;28;20429;-36
2021/11/14 08:22:32;;;;;;;17.93;13.60;;;8.50;99.90;;;;;;5012612;28;20444;-36
2021/11/14 08:25:00;;;;;;;15.63;13.10;;;8.50;99.90;;;;;;5023661;28;20500;-37
2021/11/14 08:27:27;;;;;;;18.90;13.77;;;8.70;99.90;;;;;;5007413;28;20183;-37
2021/11/14 08:29:53;;;;;;;20.40;14.07;;;8.50;99.90;;;;;;5007686;28;20808;-37
2021/11/14 08:32:19;;;;;;;14.30;12.60;;;8.60;99.90;;;;;;5007382;28;20465;-36
2021/11/14 08:34:45;;;;;;;17.37;13.50;;;8.50;99.90;;;;;;5006636;28;20195;-37
2021/11/14 08:37:11;;;;;;;15.47;12.53;;;8.60;99.90;;;;;;5013155;28;20486;-37
2021/11/14 08:39:38;;;;;;;14.97;12.60;;;8.70;99.90;;;;;;5014023;28;20794;-37
2021/11/14 08:42:04;;;;;;;15.17;12.70;;;8.80;99.90;;;;;;5010385;28;20193;-37
2021/11/14 08:44:30;;;;;;;13.80;11.40;;;8.90;99.90;;;;;;5008515;28;20849;-37
2021/11/14 08:46:56;;;;;;;13.90;11.73;;;8.90;99.90;;;;;;5013952;28;20457;-37
2021/11/14 08:49:23;;;;;;;15.57;12.10;;;8.80;99.90;;;;;;5020598;28;20190;-36
2021/11/14 08:51:49;;;;;;;16.07;12.77;;;8.80;99.90;;;;;;5013538;28;20218;-37
2021/11/14 08:54:15;;;;;;;14.53;11.33;;;9.00;99.90;;;;;;5021486;28;20784;-36
2021/11/14 08:56:41;;;;;;;14.57;11.43;;;8.80;99.90;;;;;;5025939;28;20437;-37
2021/11/14 08:59:10;;;;;;;12.93;11.20;;;8.70;99.90;;;;;;5007372;28;20442;-37
2021/11/14 09:01:38;;;;;;;15.00;11.30;;;8.80;99.90;;;;;;5011211;28;20426;-37
2021/11/14 09:04:07;;;;;;;12.97;11.10;;;8.90;99.90;;;;;;5006571;28;20480;-36
2021/11/14 09:06:33;;;;;;;14.37;11.20;;;8.90;99.90;;;;;;5009506;28;20433;-37
2021/11/14 09:08:58;;;;;;;14.43;11.27;;;9.00;99.90;;;;;;5017657;28;20959;-37
2021/11/14 09:11:24;;;;;;;13.50;11.20;;;8.90;99.90;;;;;;5020501;28;20540;-37
2021/11/14 09:13:51;;;;;;;13.40;10.93;;;9.10;99.90;;;;;;5006581;28;20219;-37
2021/11/14 09:16:17;;;;;;;13.47;11.17;;;9.10;99.90;;;;;;5019350;28;20437;-37
2021/11/14 09:18:43;;;;;;;14.10;12.27;;;9.10;99.90;;;;;;5007236;28;20410;-36
2021/11/14 09:21:09;;;;;;;14.43;11.30;;;9.10;99.90;;;;;;5009005;28;20422;-37
2021/11/14 09:23:35;;;;;;;13.50;10.80;;;9.00;99.90;;;;;;5013285;28;20248;-37
2021/11/14 09:26:01;;;;;;;13.23;10.47;;;9.00;99.90;;;;;;5025155;28;20430;-37
2021/11/14 09:28:27;;;;;;;14.13;11.30;;;9.00;99.90;;;;;;5009354;28;20195;-36
2021/11/14 09:30:53;;;;;;;12.37;10.67;;;9.00;99.90;;;;;;5018491;28;20193;-37
2021/11/14 09:33:25;;;;;;;15.63;11.73;;;9.10;99.90;;;;;;5010152;28;20501;-37
2021/11/14 09:35:52;;;;;;;13.00;11.33;;;8.90;99.90;;;;;;5010433;28;20426;-37
2021/11/14 09:38:18;;;;;;;14.53;12.07;;;8.90;99.90;;;;;;5017063;28;20506;-37
2021/11/14 09:40:44;;;;;;;13.53;12.03;;;8.80;99.90;;;;;;5019164;28;20455;-37
2021/11/14 09:43:10;;;;;;;15.07;12.00;;;8.80;99.90;;;;;;5019294;28;21012;-37
2021/11/14 09:45:37;;;;;;;15.90;12.30;;;8.90;99.90;;;;;;5013802;28;20217;-37
2021/11/14 09:48:05;;;;;;;16.50;12.37;;;8.90;99.90;;;;;;5017508;28;20417;-37
2021/11/14 09:50:31;;;;;;;15.87;12.10;;;8.70;99.90;;;;;;5014607;28;20426;-37
2021/11/14 09:52:57;;;;;;;14.90;11.00;;;9.00;99.90;;;;;;5016197;28;20462;-37
2021/11/14 09:55:25;;;;;;;15.60;12.40;;;8.90;99.90;;;;;;5014182;28;20758;-37
2021/11/14 09:57:53;;;;;;;17.37;12.17;;;9.20;99.90;;;;;;5012055;28;20496;-36
2021/11/14 10:00:23;;;;;;;14.27;11.10;;;8.90;99.90;;;;;;5012081;28;20454;-37
2021/11/14 10:02:49;;;;;;;14.53;11.43;;;9.00;99.90;;;;;;5019083;28;20499;-37
2021/11/14 10:05:15;;;;;;;14.43;11.07;;;9.20;99.90;;;;;;5009956;28;20509;-37
2021/11/14 10:07:52;;;;;;;16.70;12.07;;;9.00;99.90;;;;;;5017954;28;20191;-37
2021/11/14 10:10:18;;;;;;;15.20;12.20;;;9.00;99.90;;;;;;5012957;28;20422;-37
2021/11/14 10:12:44;;;;;;;15.70;11.33;;;9.10;99.90;;;;;;5011990;28;21312;-37
2021/11/14 10:15:13;;;;;;;13.60;10.73;;;9.10;99.90;;;;;;5009402;28;20475;-36
2021/11/14 10:17:44;;;;;;;14.07;11.07;;;9.00;99.90;;;;;;5017395;28;20190;-36
2021/11/14 10:20:10;;;;;;;16.37;11.20;;;9.20;99.90;;;;;;5009682;28;20524;-36
2021/11/14 10:22:39;;;;;;;15.83;11.93;;;8.90;99.90;;;;;;5015701;28;20437;-36
2021/11/14 10:25:06;;;;;;;15.13;11.40;;;9.30;99.90;;;;;;5016025;28;20490;-36
2021/11/14 10:27:33;;;;;;;15.50;12.20;;;9.00;99.90;;;;;;5014455;28;20472;-37
2021/11/14 10:29:58;;;;;;;16.83;13.13;;;9.10;99.90;;;;;;5009420;28;20901;-37
2021/11/14 10:32:26;;;;;;;16.20;12.20;;;9.00;99.90;;;;;;5012648;28;20560;-37
2021/11/14 10:35:02;;;;;;;15.97;11.57;;;9.00;99.90;;;;;;5009071;28;20708;-37
2021/11/14 10:37:29;;;;;;;13.67;11.40;;;9.30;99.90;;;;;;5012649;28;20516;-37
2021/11/14 10:40:03;;;;;;;14.87;11.33;;;9.20;99.90;;;;;;5022658;28;20750;-37
2021/11/14 10:42:32;;;;;;;14.90;11.17;;;9.10;99.90;;;;;;5017841;28;20438;-37
2021/11/14 10:45:00;;;;;;;15.40;12.00;;;9.00;99.90;;;;;;5008780;28;20434;-37
2021/11/14 10:47:28;;;;;;;14.07;11.20;;;9.30;99.90;;;;;;5023106;28;20471;-37
2021/11/14 10:49:57;;;;;;;15.60;12.97;;;9.10;99.90;;;;;;5018762;28;20489;-37
2021/11/14 10:52:24;;;;;;;16.23;12.10;;;9.30;99.90;;;;;;5010128;28;20476;-37
2021/11/14 10:54:58;;;;;;;14.33;10.93;;;9.30;99.90;;;;;;5016998;28;20523;-37
2021/11/14 10:57:26;;;;;;;14.33;11.00;;;9.40;99.90;;;;;;5016640;28;20926;-37
2021/11/14 10:59:52;;;;;;;17.27;11.10;;;9.40;99.90;;;;;;5008978;28;20422;-37
2021/11/14 11:02:19;;;;;;;17.30;11.27;;;9.60;99.90;;;;;;5016097;28;20429;-37
2021/11/14 11:04:50;;;;;;;12.43;10.00;;;9.80;99.90;;;;;;5008401;28;20414;-37
2021/11/14 11:07:15;;;;;;;14.10;11.17;;;9.70;99.90;;;;;;5008473;28;20434;-37
2021/11/14 11:09:43;;;;;;;12.67;9.73;;;9.80;99.90;;;;;;5021690;28;20959;-37
2021/11/14 11:12:23;;;;;;;13.57;10.20;;;10.00;99.90;;;;;;5019622;28;20283;-37
2021/11/14 11:15:05;;;;;;;12.60;9.77;;;9.80;99.90;;;;;;5012472;28;20920;-37
2021/11/14 11:17:47;;;;;;;12.70;9.87;;;10.00;99.90;;;;;;5011428;28;20424;-37
2021/11/14 11:20:18;;;;;;;13.37;9.33;;;9.90;99.90;;;;;;5008953;28;20900;-37
2021/11/14 11:22:50;;;;;;;12.50;9.50;;;10.10;99.90;;;;;;5009100;28;20445;-37
2021/11/14 11:25:26;;;;;;;11.20;9.77;;;10.20;99.90;;;;;;5025833;28;20421;-37
2021/11/14 11:27:53;;;;;;;12.93;10.00;;;10.20;99.90;;;;;;5019518;28;21288;-37
2021/11/14 11:30:37;;;;;;;9.90;8.67;;;10.20;99.90;;;;;;5008284;28;20429;-37
2021/11/14 11:33:03;;;;;;;11.53;9.67;;;10.20;99.90;;;;;;5019762;28;20557;-37
2021/11/14 11:35:30;;;;;;;13.77;10.93;;;10.30;99.90;;;;;;5008237;28;20567;-37
2021/11/14 11:37:56;;;;;;;13.77;10.30;;;10.10;99.90;;;;;;5008243;28;20198;-37
2021/11/14 11:40:23;;;;;;;12.50;10.33;;;10.20;99.90;;;;;;5010776;28;20422;-37
2021/11/14 11:42:48;;;;;;;13.73;11.07;;;10.40;99.90;;;;;;5016797;28;20190;-37
2021/11/14 11:45:16;;;;;;;14.37;11.10;;;10.30;99.90;;;;;;5007468;28;20783;-37
2021/11/14 11:47:45;;;;;;;16.40;11.60;;;10.40;99.90;;;;;;5020032;28;20186;-37
2021/11/14 11:50:12;;;;;;;14.03;11.10;;;10.60;99.90;;;;;;5021946;28;20448;-37
2021/11/14 11:52:42;;;;;;;15.03;11.57;;;10.60;99.90;;;;;;5017158;28;20473;-37
2021/11/14 11:55:18;;;;;;;16.40;11.63;;;10.40;99.90;;;;;;5016906;28;20417;-36
2021/11/14 11:57:44;;;;;;;14.03;11.67;;;10.60;99.90;;;;;;5020758;28;20484;-37
2021/11/14 12:00:12;;;;;;;13.77;11.30;;;10.50;99.90;;;;;;5021800;28;20937;-37
2021/11/14 12:02:38;;;;;;;13.73;11.43;;;10.40;99.90;;;;;;5014272;28;20537;-36
2021/11/14 12:05:11;;;;;;;13.83;11.27;;;10.50;99.90;;;;;;5012790;28;20873;-37
2021/11/14 12:07:45;;;;;;;13.10;10.77;;;10.30;99.90;;;;;;5007916;28;20613;-36
2021/11/14 12:10:26;;;;;;;16.03;10.43;;;10.70;99.90;;;;;;5013830;28;20457;-36
2021/11/14 12:12:53;;;;;;;12.97;10.60;;;10.50;99.90;;;;;;5018376;28;20466;-37
2021/11/14 12:15:21;;;;;;;14.47;10.90;;;10.50;99.90;;;;;;5007556;28;20484;-37
2021/11/14 12:17:48;;;;;;;11.67;9.60;;;10.70;99.90;;;;;;5018384;28;20748;-36
2021/11/14 12:20:15;;;;;;;10.77;9.60;;;10.50;99.90;;;;;;5007309;28;20917;-37
2021/11/14 12:22:46;;;;;;;13.00;10.30;;;10.50;99.90;;;;;;5007003;28;20765;-37
2021/11/14 12:25:23;;;;;;;12.60;9.93;;;10.40;99.90;;;;;;5018486;28;20932;-38
2021/11/14 12:28:09;;;;;;;14.20;10.70;;;10.50;99.90;;;;;;5015941;28;20418;-36
2021/11/14 12:30:40;;;;;;;12.37;10.63;;;10.40;99.90;;;;;;5007240;28;21019;-37
2021/11/14 12:33:08;;;;;;;12.50;10.10;;;10.60;99.90;;;;;;5013195;28;20977;-37
2021/11/14 12:35:47;;;;;;;13.07;10.70;;;10.30;99.90;;;;;;5015633;28;20484;-37
2021/11/14 12:38:24;;;;;;;11.30;9.40;;;10.40;99.90;;;;;;5018422;28;20491;-37